Time;durP1;ratioP1;P1;durP2;ratioP2;P2;SDS_P1;SDS_P2;PMS_P1;PMS_P2;Temp;Humidity;BMP_temperature;BMP_pressure;BME280_temperature;BME280_humidity;BME280_pressure;Samples;Min_cycle;Max_cycle;Signal;HPM_P1;HPM_P2
2023/12/04 00:01:19;;;;;;;21.03;13.57;;;0.00;99.90;;;;;;4975139;28;21059;-65
2023/12/04 00:03:47;;;;;;;20.50;13.20;;;0.00;99.90;;;;;;4977188;28;20528;-65
2023/12/04 00:06:15;;;;;;;21.87;13.40;;;-0.10;99.90;;;;;;4978772;28;20565;-66
2023/12/04 00:08:43;;;;;;;21.87;14.20;;;-0.10;99.90;;;;;;4976703;28;20593;-66
2023/12/04 00:11:11;;;;;;;19.57;14.00;;;-0.10;99.90;;;;;;4978946;28;20577;-65
2023/12/04 00:13:39;;;;;;;20.07;13.87;;;-0.20;99.90;;;;;;4976836;28;20465;-66
2023/12/04 00:16:08;;;;;;;20.00;13.33;;;-0.20;99.90;;;;;;4974978;28;20567;-65
2023/12/04 00:18:38;;;;;;;18.20;13.20;;;-0.20;99.90;;;;;;5000379;28;20898;-65
2023/12/04 00:21:06;;;;;;;21.30;14.40;;;-0.20;99.90;;;;;;4995979;28;20958;-65
2023/12/04 00:23:34;;;;;;;20.30;14.53;;;-0.20;99.90;;;;;;4975404;28;20557;-66
2023/12/04 00:26:03;;;;;;;19.53;13.47;;;-0.20;99.90;;;;;;4978345;28;20880;-66
2023/12/04 00:28:31;;;;;;;21.30;14.00;;;-0.30;99.90;;;;;;4977923;28;20567;-66
2023/12/04 00:30:59;;;;;;;20.37;13.40;;;-0.30;99.90;;;;;;4974578;28;20701;-65
2023/12/04 00:33:27;;;;;;;19.93;13.97;;;-0.30;99.90;;;;;;4978018;28;20531;-66
2023/12/04 00:35:58;;;;;;;21.00;14.03;;;-0.30;99.90;;;;;;4977632;28;20993;-65
2023/12/04 00:38:26;;;;;;;21.97;14.57;;;-0.30;99.90;;;;;;4974965;28;20495;-65
2023/12/04 00:40:54;;;;;;;19.83;14.20;;;-0.30;99.90;;;;;;4977036;28;20473;-65
2023/12/04 00:43:22;;;;;;;23.00;14.93;;;-0.30;99.90;;;;;;4973952;28;20548;-66
2023/12/04 00:45:50;;;;;;;24.50;15.30;;;-0.30;99.90;;;;;;4977381;28;20580;-65
2023/12/04 00:48:18;;;;;;;19.97;14.00;;;-0.40;99.90;;;;;;4976869;28;20497;-65
2023/12/04 00:50:46;;;;;;;23.57;14.83;;;-0.40;99.90;;;;;;4972018;28;20815;-65
2023/12/04 00:53:15;;;;;;;21.70;14.90;;;-0.40;99.90;;;;;;4978247;28;20557;-65
2023/12/04 00:55:43;;;;;;;21.50;13.83;;;-0.40;99.90;;;;;;4976522;28;20486;-65
2023/12/04 00:58:12;;;;;;;20.20;13.77;;;-0.40;99.90;;;;;;4974788;28;20476;-66
2023/12/04 01:00:40;;;;;;;19.70;13.37;;;-0.50;99.90;;;;;;4978281;28;20957;-65
2023/12/04 01:03:08;;;;;;;18.27;12.90;;;-0.50;99.90;;;;;;4982163;28;20477;-65
2023/12/04 01:05:36;;;;;;;18.80;12.80;;;-0.50;99.90;;;;;;4981269;28;21036;-65
2023/12/04 01:08:04;;;;;;;18.50;12.87;;;-0.50;99.90;;;;;;4977238;28;21380;-65
2023/12/04 01:10:34;;;;;;;19.83;13.90;;;-0.50;99.90;;;;;;4980886;28;20477;-65
2023/12/04 01:13:02;;;;;;;20.00;14.20;;;-0.60;99.90;;;;;;4981417;28;20510;-65
2023/12/04 01:15:30;;;;;;;21.23;13.50;;;-0.60;99.90;;;;;;4981444;28;20516;-65
2023/12/04 01:18:00;;;;;;;24.03;13.93;;;-0.60;99.90;;;;;;4980599;28;20473;-65
2023/12/04 01:20:28;;;;;;;20.00;13.60;;;-0.70;99.90;;;;;;4981693;28;20485;-65
2023/12/04 01:22:58;;;;;;;20.23;13.33;;;-0.70;99.90;;;;;;4976102;28;20489;-65
2023/12/04 01:25:26;;;;;;;18.33;13.03;;;-0.80;99.90;;;;;;4978981;28;20594;-65
2023/12/04 01:27:55;;;;;;;20.90;12.93;;;-0.80;99.90;;;;;;4979729;28;20489;-65
2023/12/04 01:30:23;;;;;;;18.70;11.87;;;-0.80;99.90;;;;;;4978658;28;21028;-65
2023/12/04 01:32:52;;;;;;;20.83;13.03;;;-0.80;99.90;;;;;;4979695;28;20468;-65
2023/12/04 01:35:20;;;;;;;19.13;12.80;;;-0.80;99.90;;;;;;4980312;28;20469;-65
2023/12/04 01:37:48;;;;;;;20.33;14.17;;;-0.80;99.90;;;;;;4976498;28;20500;-65
2023/12/04 01:40:16;;;;;;;18.60;12.90;;;-0.80;99.90;;;;;;4980160;28;20528;-65
2023/12/04 01:42:44;;;;;;;22.60;14.80;;;-0.80;99.90;;;;;;4983010;28;20555;-65
2023/12/04 01:45:13;;;;;;;19.73;13.30;;;-0.80;99.90;;;;;;4980103;28;20498;-64
2023/12/04 01:47:41;;;;;;;20.80;13.20;;;-0.80;99.90;;;;;;4981016;28;20562;-65
2023/12/04 01:50:11;;;;;;;20.07;13.30;;;-0.80;99.90;;;;;;4978188;28;20462;-65
2023/12/04 01:52:40;;;;;;;18.87;13.57;;;-0.80;99.90;;;;;;4980019;28;20501;-65
2023/12/04 01:55:10;;;;;;;22.83;14.50;;;-0.80;99.90;;;;;;4979549;28;20493;-65
2023/12/04 01:57:38;;;;;;;22.53;15.00;;;-0.80;99.90;;;;;;4980663;28;20472;-65
2023/12/04 02:00:11;;;;;;;21.50;12.67;;;-0.80;99.90;;;;;;4982124;28;20978;-65
2023/12/04 02:02:41;;;;;;;19.80;13.13;;;-0.80;99.90;;;;;;4978700;28;20520;-65
2023/12/04 02:05:10;;;;;;;22.40;13.80;;;-0.90;99.90;;;;;;4981209;28;20577;-65
2023/12/04 02:07:38;;;;;;;22.40;13.43;;;-0.90;99.90;;;;;;4978484;28;20493;-65
2023/12/04 02:10:07;;;;;;;20.27;13.33;;;-0.90;99.90;;;;;;4982639;28;21092;-66
2023/12/04 02:12:35;;;;;;;24.00;14.63;;;-0.90;99.90;;;;;;4980301;28;20468;-65
2023/12/04 02:15:04;;;;;;;21.90;14.00;;;-0.90;99.90;;;;;;4981752;28;20469;-65
2023/12/04 02:17:34;;;;;;;21.40;13.83;;;-0.90;99.90;;;;;;4980447;28;20509;-65
2023/12/04 02:20:05;;;;;;;19.43;13.40;;;-0.90;99.90;;;;;;4978226;28;20973;-65
2023/12/04 02:22:33;;;;;;;22.63;14.10;;;-0.90;99.90;;;;;;4977284;28;20473;-65
2023/12/04 02:25:02;;;;;;;21.60;14.03;;;-0.90;99.90;;;;;;4977853;28;20596;-65
2023/12/04 02:27:38;;;;;;;22.90;13.37;;;-1.00;99.90;;;;;;4978472;28;20576;-67
2023/12/04 02:30:11;;;;;;;20.73;13.90;;;-1.00;99.90;;;;;;4982398;28;20461;-66
2023/12/04 02:32:45;;;;;;;22.57;14.43;;;-1.00;99.90;;;;;;5000388;28;20473;-65
2023/12/04 02:35:15;;;;;;;24.30;13.63;;;-1.00;99.90;;;;;;4990643;28;20473;-65
2023/12/04 02:37:43;;;;;;;23.83;14.10;;;-1.00;99.90;;;;;;4981375;28;20544;-65
2023/12/04 02:40:14;;;;;;;20.43;12.87;;;-1.00;99.90;;;;;;4979242;28;20481;-64
2023/12/04 02:42:42;;;;;;;20.83;13.20;;;-1.00;99.90;;;;;;4979042;28;20474;-65
2023/12/04 02:45:10;;;;;;;17.40;12.23;;;-1.00;99.90;;;;;;4977571;28;20473;-65
2023/12/04 02:47:38;;;;;;;23.90;13.87;;;-1.00;99.90;;;;;;4978793;28;20838;-65
2023/12/04 02:50:08;;;;;;;20.47;13.30;;;-1.00;99.90;;;;;;4977586;28;21048;-65
2023/12/04 02:52:35;;;;;;;22.20;14.00;;;-1.00;99.90;;;;;;4976225;28;20551;-65
2023/12/04 02:55:04;;;;;;;22.87;13.93;;;-1.10;99.90;;;;;;4977914;28;20578;-65
2023/12/04 02:57:34;;;;;;;22.67;14.43;;;-1.00;99.90;;;;;;4976178;28;20565;-65
2023/12/04 03:00:02;;;;;;;21.50;12.77;;;-1.00;99.90;;;;;;4977642;28;20565;-66
2023/12/04 03:02:30;;;;;;;20.13;12.83;;;-1.00;99.90;;;;;;4979448;28;20624;-65
2023/12/04 03:04:58;;;;;;;20.77;13.10;;;-1.00;99.90;;;;;;4977783;28;20644;-65
2023/12/04 03:07:26;;;;;;;18.87;12.93;;;-1.00;99.90;;;;;;4977644;28;20482;-65
2023/12/04 03:09:55;;;;;;;21.63;13.53;;;-1.10;99.90;;;;;;4981264;28;20628;-65
2023/12/04 03:12:22;;;;;;;19.93;12.10;;;-1.00;99.90;;;;;;4978138;28;20478;-65
2023/12/04 03:14:52;;;;;;;17.07;12.70;;;-1.00;99.90;;;;;;4976164;28;20588;-65
2023/12/04 03:17:20;;;;;;;20.07;13.93;;;-1.10;99.90;;;;;;4980864;28;20484;-65
2023/12/04 03:19:48;;;;;;;17.90;11.97;;;-1.10;99.90;;;;;;4995043;28;20564;-65
2023/12/04 03:22:18;;;;;;;18.60;11.93;;;-1.00;99.90;;;;;;4995050;28;20928;-65
2023/12/04 03:24:46;;;;;;;19.13;11.37;;;-1.00;99.90;;;;;;4997162;28;20985;-65
2023/12/04 03:27:14;;;;;;;18.47;12.10;;;-1.00;99.90;;;;;;4991485;28;20481;-65
2023/12/04 03:29:42;;;;;;;15.90;11.53;;;-1.00;99.90;;;;;;4977499;28;20557;-64
2023/12/04 03:32:12;;;;;;;19.40;11.93;;;-1.00;99.90;;;;;;4974758;28;20506;-65
2023/12/04 03:34:40;;;;;;;17.30;11.83;;;-0.90;99.90;;;;;;4975222;28;20590;-65
2023/12/04 03:37:08;;;;;;;14.80;10.73;;;-0.90;99.90;;;;;;4976938;28;20870;-65
2023/12/04 03:39:36;;;;;;;16.67;11.60;;;-0.90;99.90;;;;;;4978571;28;20489;-65
2023/12/04 03:42:05;;;;;;;15.10;11.30;;;-1.00;99.90;;;;;;4978019;28;20468;-65
2023/12/04 03:44:33;;;;;;;19.53;11.53;;;-1.00;99.90;;;;;;4976400;28;20473;-67
2023/12/04 03:47:01;;;;;;;17.13;11.23;;;-1.00;99.90;;;;;;4977812;28;20511;-65
2023/12/04 03:49:30;;;;;;;19.20;11.83;;;-1.00;99.90;;;;;;4976326;28;20560;-64
2023/12/04 03:51:58;;;;;;;17.20;11.80;;;-0.90;99.90;;;;;;4976635;28;20599;-65
2023/12/04 03:54:26;;;;;;;18.20;11.07;;;-0.90;99.90;;;;;;4978318;28;20478;-65
2023/12/04 03:56:54;;;;;;;17.47;11.57;;;-0.90;99.90;;;;;;4977192;28;20489;-65
2023/12/04 03:59:22;;;;;;;16.87;11.50;;;-0.90;99.90;;;;;;4976544;28;20483;-64
2023/12/04 04:01:50;;;;;;;18.87;11.67;;;-0.90;99.90;;;;;;4977735;28;20556;-64
2023/12/04 04:04:18;;;;;;;16.17;10.80;;;-0.90;99.90;;;;;;4976686;28;20816;-64
2023/12/04 04:06:47;;;;;;;17.50;11.77;;;-0.90;99.90;;;;;;4973220;28;20732;-65
2023/12/04 04:09:16;;;;;;;14.63;10.40;;;-0.90;99.90;;;;;;4995967;28;20841;-64
2023/12/04 04:11:44;;;;;;;18.93;10.80;;;-0.90;99.90;;;;;;4995084;28;20546;-64
2023/12/04 04:14:13;;;;;;;18.53;11.17;;;-0.90;99.90;;;;;;4998505;28;21990;-64
2023/12/04 04:16:41;;;;;;;18.20;11.27;;;-0.90;99.90;;;;;;4996327;28;20496;-64
2023/12/04 04:19:09;;;;;;;16.00;10.10;;;-0.90;99.90;;;;;;4995335;28;20575;-65
2023/12/04 04:21:41;;;;;;;20.30;11.53;;;-0.90;99.90;;;;;;4994984;28;20475;-64
2023/12/04 04:24:10;;;;;;;16.80;11.47;;;-0.90;99.90;;;;;;4993435;28;20464;-64
2023/12/04 04:26:38;;;;;;;14.27;10.93;;;-0.90;99.90;;;;;;4996078;28;20595;-64
2023/12/04 04:29:06;;;;;;;18.47;12.13;;;-0.90;99.90;;;;;;4995074;28;20513;-64
2023/12/04 04:31:34;;;;;;;17.27;10.70;;;-0.90;99.90;;;;;;4997471;28;20734;-64
2023/12/04 04:34:02;;;;;;;15.87;10.03;;;-0.80;99.90;;;;;;4995620;28;20473;-64
2023/12/04 04:36:30;;;;;;;16.77;10.33;;;-0.80;99.90;;;;;;4992954;28;21050;-64
2023/12/04 04:38:58;;;;;;;15.23;10.70;;;-0.80;99.90;;;;;;4996812;28;20560;-64
2023/12/04 04:41:28;;;;;;;17.07;11.53;;;-0.80;99.90;;;;;;4997082;28;20476;-64
2023/12/04 04:43:56;;;;;;;15.83;10.17;;;-0.80;99.90;;;;;;5001563;28;20580;-64
2023/12/04 04:46:25;;;;;;;15.17;10.27;;;-0.70;99.90;;;;;;5021148;28;20497;-64
2023/12/04 04:48:53;;;;;;;14.13;9.83;;;-0.70;99.90;;;;;;5012896;28;20535;-64
2023/12/04 04:51:22;;;;;;;17.53;10.80;;;-0.70;99.90;;;;;;5000382;28;20472;-64
2023/12/04 04:53:50;;;;;;;16.03;10.83;;;-0.70;99.90;;;;;;4997519;28;20481;-64
2023/12/04 04:56:18;;;;;;;15.10;10.07;;;-0.70;99.90;;;;;;4998856;28;20510;-64
2023/12/04 04:58:48;;;;;;;14.97;9.97;;;-0.70;99.90;;;;;;4997804;28;21079;-68
2023/12/04 05:01:20;;;;;;;14.90;9.90;;;-0.60;99.90;;;;;;4993870;28;20476;-64
2023/12/04 05:03:48;;;;;;;16.60;10.63;;;-0.60;99.90;;;;;;4996747;28;20566;-64
2023/12/04 05:06:16;;;;;;;16.30;10.80;;;-0.60;99.90;;;;;;4996106;28;20585;-64
2023/12/04 05:08:44;;;;;;;16.50;10.77;;;-0.60;99.90;;;;;;4995131;28;20965;-64
2023/12/04 05:11:15;;;;;;;13.20;9.50;;;-0.50;99.90;;;;;;4996555;28;20605;-64
2023/12/04 05:13:45;;;;;;;13.97;10.10;;;-0.50;99.90;;;;;;4996972;28;20483;-64
2023/12/04 05:16:15;;;;;;;12.60;9.63;;;-0.50;99.90;;;;;;4995618;28;20582;-64
2023/12/04 05:18:43;;;;;;;15.90;9.83;;;-0.50;99.90;;;;;;4996245;28;20492;-64
2023/12/04 05:21:11;;;;;;;15.10;10.67;;;-0.50;99.90;;;;;;4996561;28;20586;-64
2023/12/04 05:23:40;;;;;;;16.30;10.77;;;-0.50;99.90;;;;;;4997779;28;20509;-64
2023/12/04 05:26:08;;;;;;;14.57;9.90;;;-0.50;99.90;;;;;;4993329;28;20562;-64
2023/12/04 05:28:36;;;;;;;15.33;10.20;;;-0.50;99.90;;;;;;4996195;28;20515;-64
2023/12/04 05:31:05;;;;;;;16.30;9.57;;;-0.50;99.90;;;;;;4996750;28;20555;-64
2023/12/04 05:33:34;;;;;;;15.70;10.67;;;-0.50;99.90;;;;;;4989817;28;20532;-66
2023/12/04 05:36:03;;;;;;;13.90;9.73;;;-0.40;99.90;;;;;;4994346;28;20496;-64
2023/12/04 05:38:31;;;;;;;15.77;9.90;;;-0.40;99.90;;;;;;4993996;28;20568;-64
2023/12/04 05:40:59;;;;;;;15.77;10.20;;;-0.40;99.90;;;;;;4998852;28;20540;-64
2023/12/04 05:43:27;;;;;;;17.77;11.17;;;-0.40;99.90;;;;;;4996342;28;20485;-64
2023/12/04 05:45:54;;;;;;;14.77;9.73;;;-0.40;99.90;;;;;;4992620;28;21051;-64
2023/12/04 05:48:22;;;;;;;16.17;10.20;;;-0.40;99.90;;;;;;4996614;28;20501;-64
2023/12/04 05:50:52;;;;;;;20.27;10.43;;;-0.40;99.90;;;;;;4999022;28;20608;-64
2023/12/04 05:53:20;;;;;;;17.57;11.20;;;-0.40;99.90;;;;;;4999660;28;20562;-64
2023/12/04 05:55:48;;;;;;;15.63;10.70;;;-0.40;99.90;;;;;;4997576;28;20496;-64
2023/12/04 05:58:16;;;;;;;16.80;11.17;;;-0.40;99.90;;;;;;4995524;28;21086;-64
2023/12/04 06:00:44;;;;;;;16.23;10.70;;;-0.40;99.90;;;;;;4997274;28;20592;-65
2023/12/04 06:03:12;;;;;;;16.53;10.00;;;-0.40;99.90;;;;;;4994156;28;20519;-65
2023/12/04 06:05:40;;;;;;;15.90;11.07;;;-0.40;99.90;;;;;;4995220;28;20500;-64
2023/12/04 06:08:09;;;;;;;15.93;11.10;;;-0.40;99.90;;;;;;4996904;28;20499;-68
2023/12/04 06:10:37;;;;;;;16.70;11.30;;;-0.40;99.90;;;;;;4994794;28;20478;-66
2023/12/04 06:13:05;;;;;;;17.73;11.10;;;-0.40;99.90;;;;;;4998797;28;20495;-66
2023/12/04 06:15:34;;;;;;;17.97;11.93;;;-0.40;99.90;;;;;;4994696;28;20866;-66
2023/12/04 06:18:02;;;;;;;16.73;12.20;;;-0.40;99.90;;;;;;4994236;28;20475;-65
2023/12/04 06:20:30;;;;;;;17.13;12.03;;;-0.40;99.90;;;;;;4994939;28;20475;-65
2023/12/04 06:22:59;;;;;;;17.57;11.90;;;-0.50;99.90;;;;;;4992472;28;20579;-65
2023/12/04 06:25:29;;;;;;;19.07;10.60;;;-0.50;99.90;;;;;;4997126;28;20605;-65
2023/12/04 06:27:58;;;;;;;18.10;10.97;;;-0.50;99.90;;;;;;4992827;28;20501;-65
2023/12/04 06:30:26;;;;;;;17.40;11.70;;;-0.50;99.90;;;;;;4994033;28;20540;-65
2023/12/04 06:32:55;;;;;;;17.90;11.57;;;-0.50;99.90;;;;;;4995315;28;20495;-65
2023/12/04 06:35:24;;;;;;;16.10;10.20;;;-0.50;99.90;;;;;;4986536;28;20916;-65
2023/12/04 06:37:55;;;;;;;18.17;11.23;;;-0.50;99.90;;;;;;4991264;28;20491;-65
2023/12/04 06:40:23;;;;;;;16.73;11.00;;;-0.50;99.90;;;;;;4993135;28;20468;-65
2023/12/04 06:42:53;;;;;;;18.30;11.20;;;-0.50;99.90;;;;;;4983176;28;20582;-66
2023/12/04 06:45:22;;;;;;;16.43;11.13;;;-0.50;99.90;;;;;;4971225;28;20793;-69
2023/12/04 06:47:53;;;;;;;16.77;11.60;;;-0.40;99.90;;;;;;4989513;28;20488;-65
2023/12/04 06:50:21;;;;;;;17.40;12.17;;;-0.40;99.90;;;;;;4993626;28;20584;-65
2023/12/04 06:52:49;;;;;;;18.00;11.97;;;-0.40;99.90;;;;;;4997967;28;21003;-65
2023/12/04 06:55:17;;;;;;;18.53;12.07;;;-0.40;99.90;;;;;;5005225;28;20504;-66
2023/12/04 06:57:45;;;;;;;18.90;12.13;;;-0.40;99.90;;;;;;5010258;28;20471;-66
2023/12/04 07:00:16;;;;;;;17.67;11.07;;;-0.40;99.90;;;;;;5015680;28;20579;-65
2023/12/04 07:02:50;;;;;;;20.67;12.23;;;-0.40;99.90;;;;;;5005397;28;20476;-65
2023/12/04 07:05:18;;;;;;;20.80;12.60;;;-0.40;99.90;;;;;;4996755;28;20495;-65
2023/12/04 07:07:46;;;;;;;18.87;12.00;;;-0.40;99.90;;;;;;4997667;28;20576;-66
2023/12/04 07:10:14;;;;;;;16.80;11.63;;;-0.40;99.90;;;;;;4997963;28;20899;-66
2023/12/04 07:12:44;;;;;;;18.27;11.70;;;-0.50;99.90;;;;;;4999385;28;20600;-66
2023/12/04 07:15:12;;;;;;;19.73;11.70;;;-0.50;99.90;;;;;;4997783;28;20481;-66
2023/12/04 07:17:41;;;;;;;17.67;11.73;;;-0.50;99.90;;;;;;4993515;28;21055;-65
2023/12/04 07:20:12;;;;;;;19.33;11.83;;;-0.50;99.90;;;;;;4984128;28;20480;-65
2023/12/04 07:22:40;;;;;;;19.77;12.10;;;-0.50;99.90;;;;;;4981719;28;20468;-65
2023/12/04 07:25:11;;;;;;;20.77;11.10;;;-0.50;99.90;;;;;;4992566;28;20539;-65
2023/12/04 07:27:39;;;;;;;17.60;11.33;;;-0.40;99.90;;;;;;4979772;28;20500;-65
2023/12/04 07:30:08;;;;;;;17.53;11.30;;;-0.40;99.90;;;;;;4983335;28;20484;-65
2023/12/04 07:32:36;;;;;;;17.03;10.90;;;-0.50;99.90;;;;;;4978056;28;20476;-65
2023/12/04 07:35:07;;;;;;;19.60;12.63;;;-0.50;99.90;;;;;;4976143;28;21516;-65
2023/12/04 07:37:35;;;;;;;19.30;12.37;;;-0.40;99.90;;;;;;4973762;28;20590;-65
2023/12/04 07:40:05;;;;;;;16.67;10.27;;;-0.40;99.90;;;;;;4981684;28;21024;-65
2023/12/04 07:42:33;;;;;;;21.83;12.80;;;-0.40;99.90;;;;;;4986682;28;20485;-65
2023/12/04 07:45:02;;;;;;;19.80;12.10;;;-0.40;99.90;;;;;;4982424;28;20486;-65
2023/12/04 07:47:31;;;;;;;19.70;12.27;;;-0.40;99.90;;;;;;4982074;28;20582;-65
2023/12/04 07:49:59;;;;;;;18.60;11.23;;;-0.40;99.90;;;;;;4990830;28;20491;-65
2023/12/04 07:52:29;;;;;;;19.60;11.97;;;-0.40;99.90;;;;;;4984797;28;21001;-65
2023/12/04 07:54:57;;;;;;;20.40;12.20;;;-0.40;99.90;;;;;;4978128;28;20472;-65
2023/12/04 07:57:26;;;;;;;18.17;12.30;;;-0.40;99.90;;;;;;4977781;28;20507;-65
2023/12/04 07:59:54;;;;;;;16.50;10.70;;;-0.30;99.90;;;;;;4987927;28;20492;-65
2023/12/04 08:02:22;;;;;;;18.60;11.67;;;-0.30;99.90;;;;;;4979109;28;21019;-65
2023/12/04 08:04:50;;;;;;;16.83;11.70;;;-0.30;99.90;;;;;;4985674;28;20472;-65
2023/12/04 08:07:18;;;;;;;17.43;11.10;;;-0.30;99.90;;;;;;4982342;28;20619;-65
2023/12/04 08:09:47;;;;;;;17.47;10.67;;;-0.30;99.90;;;;;;4981562;28;20574;-65
2023/12/04 08:12:15;;;;;;;16.17;11.63;;;-0.30;99.90;;;;;;4973561;28;20480;-65
2023/12/04 08:14:43;;;;;;;17.70;12.07;;;-0.30;99.90;;;;;;4982021;28;20575;-65
2023/12/04 08:17:11;;;;;;;19.83;12.10;;;-0.20;99.90;;;;;;4989133;28;20495;-67
2023/12/04 08:19:40;;;;;;;19.27;11.33;;;-0.20;99.90;;;;;;4984652;28;20921;-65
2023/12/04 08:22:08;;;;;;;17.00;10.63;;;-0.20;99.90;;;;;;4990147;28;21032;-65
2023/12/04 08:24:36;;;;;;;19.47;11.37;;;-0.20;99.90;;;;;;4974884;28;20477;-65
2023/12/04 08:27:06;;;;;;;15.07;10.40;;;-0.20;99.90;;;;;;4983850;28;20488;-65
2023/12/04 08:29:34;;;;;;;19.63;11.80;;;-0.20;99.90;;;;;;4983218;28;20546;-65
2023/12/04 08:32:02;;;;;;;18.80;11.50;;;-0.20;99.90;;;;;;4990710;28;20473;-65
2023/12/04 08:34:31;;;;;;;18.27;12.20;;;-0.20;99.90;;;;;;4991472;28;20492;-65
2023/12/04 08:36:59;;;;;;;15.97;10.90;;;-0.20;99.90;;;;;;4991860;28;20627;-67
2023/12/04 08:39:27;;;;;;;17.57;11.50;;;-0.20;99.90;;;;;;4990678;28;20496;-65
2023/12/04 08:41:55;;;;;;;17.20;11.70;;;-0.20;99.90;;;;;;4991151;28;20555;-65
2023/12/04 08:44:33;;;;;;;17.97;11.47;;;-0.20;99.90;;;;;;4994988;28;20496;-65
2023/12/04 08:47:01;;;;;;;15.13;10.57;;;-0.10;99.90;;;;;;4995737;28;20615;-65
2023/12/04 08:49:30;;;;;;;19.10;11.73;;;-0.10;99.90;;;;;;4998302;28;20497;-65
2023/12/04 08:52:10;;;;;;;18.77;11.40;;;-0.10;99.90;;;;;;4996548;28;20530;-65
2023/12/04 08:54:40;;;;;;;17.10;11.97;;;-0.10;99.90;;;;;;4992754;28;20905;-65
2023/12/04 08:57:09;;;;;;;17.63;11.60;;;-0.10;99.90;;;;;;4992676;28;20854;-65
2023/12/04 08:59:38;;;;;;;21.13;12.90;;;-0.10;99.90;;;;;;4996367;28;20469;-65
2023/12/04 09:02:07;;;;;;;18.43;11.83;;;-0.10;99.90;;;;;;4995067;28;20593;-66
2023/12/04 09:04:38;;;;;;;16.73;11.30;;;-0.10;99.90;;;;;;4991778;28;20563;-65
2023/12/04 09:07:07;;;;;;;17.17;11.80;;;-0.10;99.90;;;;;;4995640;28;20493;-65
2023/12/04 09:09:37;;;;;;;18.63;12.67;;;-0.10;99.90;;;;;;5000589;28;20583;-66
2023/12/04 09:12:07;;;;;;;16.50;11.20;;;-0.10;99.90;;;;;;5004934;28;20458;-65
2023/12/04 09:14:35;;;;;;;17.80;11.67;;;-0.10;99.90;;;;;;5002288;28;20644;-65
2023/12/04 09:17:05;;;;;;;17.47;12.00;;;-0.10;99.90;;;;;;4985578;28;20492;-65
2023/12/04 09:19:33;;;;;;;19.00;12.30;;;-0.10;99.90;;;;;;4990085;28;20560;-65
2023/12/04 09:22:02;;;;;;;21.40;13.60;;;-0.10;99.90;;;;;;4986517;28;20494;-65
2023/12/04 09:24:44;;;;;;;17.30;12.60;;;-0.10;99.90;;;;;;4985370;28;20503;-65
2023/12/04 09:27:12;;;;;;;20.90;13.07;;;-0.10;99.90;;;;;;4985674;28;20604;-66
2023/12/04 09:29:41;;;;;;;20.70;11.97;;;-0.10;99.90;;;;;;4977774;28;20965;-65
2023/12/04 09:32:11;;;;;;;19.70;12.00;;;-0.10;99.90;;;;;;4993065;28;20531;-65
2023/12/04 09:34:39;;;;;;;19.93;12.67;;;-0.10;99.90;;;;;;4978311;28;20499;-65
2023/12/04 09:37:07;;;;;;;20.07;13.03;;;-0.10;99.90;;;;;;4981140;28;20496;-65
2023/12/04 09:39:39;;;;;;;20.53;12.60;;;-0.10;99.90;;;;;;4983128;28;20579;-66
2023/12/04 09:42:08;;;;;;;20.40;13.53;;;-0.10;99.90;;;;;;4985148;28;20468;-65
2023/12/04 09:44:38;;;;;;;20.23;12.77;;;-0.10;99.90;;;;;;4992113;28;20895;-65
2023/12/04 09:47:08;;;;;;;20.20;11.90;;;-0.10;99.90;;;;;;4985132;28;20941;-66
2023/12/04 09:49:39;;;;;;;19.20;12.40;;;-0.10;99.90;;;;;;4988039;28;20495;-65
2023/12/04 09:52:07;;;;;;;19.80;12.30;;;-0.10;99.90;;;;;;4983421;28;20482;-66
2023/12/04 09:54:37;;;;;;;20.00;13.37;;;-0.10;99.90;;;;;;4985329;28;20476;-65
2023/12/04 09:57:06;;;;;;;20.77;12.80;;;-0.10;99.90;;;;;;4979740;28;21057;-64
2023/12/04 09:59:35;;;;;;;21.20;13.63;;;-0.10;99.90;;;;;;4983322;28;21111;-65
2023/12/04 10:02:05;;;;;;;19.70;12.70;;;-0.10;99.90;;;;;;4983652;28;20784;-65
2023/12/04 10:04:34;;;;;;;19.77;13.13;;;0.00;99.90;;;;;;4985972;28;20460;-64
2023/12/04 10:07:07;;;;;;;20.50;13.67;;;0.00;99.90;;;;;;4989669;28;20612;-65
2023/12/04 10:09:35;;;;;;;18.30;12.47;;;0.00;99.90;;;;;;4987580;28;20592;-65
2023/12/04 10:12:04;;;;;;;19.63;12.10;;;0.10;99.90;;;;;;4988345;28;20485;-64
2023/12/04 10:14:32;;;;;;;19.47;12.87;;;0.10;99.90;;;;;;4986130;28;20484;-65
2023/12/04 10:17:00;;;;;;;21.23;13.00;;;0.10;99.90;;;;;;4984954;28;20489;-65
2023/12/04 10:19:29;;;;;;;18.80;12.67;;;0.10;99.90;;;;;;4985175;28;20538;-65
2023/12/04 10:21:59;;;;;;;19.10;11.77;;;0.20;99.90;;;;;;4988061;28;21459;-65
2023/12/04 10:24:31;;;;;;;16.43;11.57;;;0.20;99.90;;;;;;4992141;28;20542;-65
2023/12/04 10:27:00;;;;;;;18.20;12.00;;;0.20;99.90;;;;;;4988001;28;20491;-65
2023/12/04 10:29:30;;;;;;;17.97;13.70;;;0.30;99.90;;;;;;4988564;28;20831;-65
2023/12/04 10:32:02;;;;;;;15.93;11.20;;;0.30;99.90;;;;;;4986171;28;20472;-65
2023/12/04 10:34:33;;;;;;;17.70;12.10;;;0.30;99.90;;;;;;4992399;28;20504;-65
2023/12/04 10:37:03;;;;;;;18.00;11.40;;;0.30;99.90;;;;;;4986432;28;21086;-64
2023/12/04 10:39:46;;;;;;;17.27;11.53;;;0.30;99.90;;;;;;4990020;28;20556;-65
2023/12/04 10:42:24;;;;;;;19.23;11.90;;;0.30;99.90;;;;;;4989561;28;20598;-65
2023/12/04 10:44:53;;;;;;;18.77;12.90;;;0.30;99.90;;;;;;4989424;28;20628;-65
2023/12/04 10:47:22;;;;;;;18.67;11.50;;;0.40;99.90;;;;;;4990108;28;20528;-65
2023/12/04 10:49:51;;;;;;;20.57;12.20;;;0.40;99.90;;;;;;4986036;28;20496;-65
2023/12/04 10:52:20;;;;;;;20.30;13.57;;;0.40;99.90;;;;;;4984513;28;20472;-65
2023/12/04 10:54:50;;;;;;;20.70;12.80;;;0.40;99.90;;;;;;4983812;28;20472;-65
2023/12/04 10:57:24;;;;;;;17.73;12.33;;;0.40;99.90;;;;;;4984987;28;20525;-65
2023/12/04 10:59:58;;;;;;;20.97;12.97;;;0.40;99.90;;;;;;4985961;28;21002;-65
2023/12/04 11:02:28;;;;;;;18.20;11.83;;;0.50;99.90;;;;;;4987927;28;20958;-65
2023/12/04 11:05:02;;;;;;;17.43;11.40;;;0.50;99.90;;;;;;4987833;28;20908;-65
2023/12/04 11:07:33;;;;;;;17.13;11.57;;;0.50;99.90;;;;;;4985897;28;21018;-65
2023/12/04 11:10:24;;;;;;;18.07;12.33;;;0.50;99.90;;;;;;4986157;28;20484;-65
2023/12/04 11:12:58;;;;;;;17.73;11.90;;;0.50;99.90;;;;;;4993476;28;20477;-65
2023/12/04 11:15:28;;;;;;;18.23;11.40;;;0.50;99.90;;;;;;4984372;28;20487;-65
2023/12/04 11:18:00;;;;;;;17.40;11.43;;;0.50;99.90;;;;;;4984348;28;21034;-65
2023/12/04 11:20:32;;;;;;;18.27;12.60;;;0.50;99.90;;;;;;5001038;28;20764;-64
2023/12/04 11:23:06;;;;;;;19.50;13.10;;;0.50;99.90;;;;;;5005859;28;20490;-65
2023/12/04 11:25:36;;;;;;;17.83;12.53;;;0.50;99.90;;;;;;4985482;28;20485;-65
2023/12/04 11:28:05;;;;;;;15.47;11.60;;;0.50;99.90;;;;;;4986765;28;20757;-65
2023/12/04 11:30:33;;;;;;;18.03;12.63;;;0.50;99.90;;;;;;4989740;28;20619;-65
2023/12/04 11:33:02;;;;;;;18.43;11.60;;;0.60;99.90;;;;;;4987958;28;20585;-66
2023/12/04 11:35:30;;;;;;;16.77;12.07;;;0.50;99.90;;;;;;4992319;28;20591;-66
2023/12/04 11:38:00;;;;;;;16.87;12.10;;;0.60;99.90;;;;;;4986285;28;20508;-66
2023/12/04 11:40:28;;;;;;;17.47;12.73;;;0.60;99.90;;;;;;4985948;28;20563;-65
2023/12/04 11:42:58;;;;;;;20.33;13.23;;;0.60;99.90;;;;;;4982856;28;20469;-66
2023/12/04 11:45:26;;;;;;;16.70;12.67;;;0.60;99.90;;;;;;4982182;28;20512;-66
2023/12/04 11:47:56;;;;;;;18.37;11.50;;;0.60;99.90;;;;;;4975279;28;20562;-66
2023/12/04 11:50:26;;;;;;;19.03;11.90;;;0.70;99.90;;;;;;4993438;28;20500;-65
2023/12/04 11:52:55;;;;;;;19.47;12.23;;;0.70;99.90;;;;;;4983362;28;20472;-65
2023/12/04 11:55:26;;;;;;;16.73;11.70;;;0.70;99.90;;;;;;4983491;28;20495;-65
2023/12/04 11:57:58;;;;;;;17.40;11.83;;;0.70;99.90;;;;;;4984895;28;20497;-65
2023/12/04 12:00:26;;;;;;;17.60;12.00;;;0.70;99.90;;;;;;4983914;28;20465;-65
2023/12/04 12:03:06;;;;;;;19.30;13.27;;;0.80;99.90;;;;;;4984058;28;20476;-66
2023/12/04 12:05:50;;;;;;;16.70;11.13;;;0.80;99.90;;;;;;4984428;28;20509;-66
2023/12/04 12:08:23;;;;;;;15.43;11.67;;;0.90;99.90;;;;;;4985434;28;20678;-65
2023/12/04 12:10:52;;;;;;;14.90;11.33;;;0.80;99.90;;;;;;4987060;28;20495;-65
2023/12/04 12:13:23;;;;;;;18.60;12.33;;;0.80;99.90;;;;;;4980157;28;20464;-66
2023/12/04 12:15:52;;;;;;;17.43;11.37;;;0.80;99.90;;;;;;4987848;28;20514;-66
2023/12/04 12:18:24;;;;;;;17.53;12.20;;;0.80;99.90;;;;;;4979355;28;20515;-66
2023/12/04 12:20:55;;;;;;;16.77;11.50;;;0.90;99.90;;;;;;4983966;28;20534;-66
2023/12/04 12:23:24;;;;;;;16.70;11.70;;;0.90;99.90;;;;;;4982550;28;20711;-66
2023/12/04 12:25:52;;;;;;;18.43;12.03;;;0.80;99.90;;;;;;4981108;28;20583;-65
2023/12/04 12:28:21;;;;;;;16.37;11.13;;;0.90;99.90;;;;;;4981377;28;20852;-65
2023/12/04 12:30:49;;;;;;;15.37;10.87;;;0.80;99.90;;;;;;4975678;28;20595;-65
2023/12/04 12:33:17;;;;;;;17.30;12.13;;;0.90;99.90;;;;;;4972914;28;20990;-65
2023/12/04 12:35:45;;;;;;;15.33;11.10;;;0.80;99.90;;;;;;4974874;28;20622;-65
2023/12/04 12:38:27;;;;;;;18.10;12.07;;;0.80;99.90;;;;;;4940477;28;1087682;-66